Time;durP1;ratioP1;P1;durP2;ratioP2;P2;SDS_P1;SDS_P2;PMS_P1;PMS_P2;Temp;Humidity;BMP_temperature;BMP_pressure;BME280_temperature;BME280_humidity;BME280_pressure;Samples;Min_cycle;Max_cycle;Signal;HPM_P1;HPM_P2
2021/11/29 00:02:47;;;;;;;35.97;21.95;;;0.20;99.90;;;;;;6264453;22;20026;-87
2021/11/29 00:05:35;;;;;;;31.60;20.87;;;0.20;99.90;;;;;;6305646;22;20038;-87
2021/11/29 00:08:26;;;;;;;38.83;23.33;;;0.30;99.90;;;;;;6242345;22;20038;-87
2021/11/29 00:11:14;;;;;;;40.57;22.60;;;0.30;99.90;;;;;;6285116;22;20064;-87
2021/11/29 00:14:02;;;;;;;34.40;21.48;;;0.40;99.90;;;;;;6308168;22;20151;-88
2021/11/29 00:16:49;;;;;;;24.65;15.77;;;0.40;99.90;;;;;;6308509;22;20023;-87
2021/11/29 00:19:39;;;;;;;19.08;11.80;;;0.30;99.90;;;;;;6285178;22;20477;-89
2021/11/29 00:22:26;;;;;;;15.02;8.80;;;0.30;99.90;;;;;;6284983;22;20112;-88
2021/11/29 00:25:14;;;;;;;11.60;8.07;;;0.30;99.90;;;;;;6282901;22;20378;-87
2021/11/29 00:28:01;;;;;;;14.95;9.07;;;0.30;99.90;;;;;;6285573;22;20023;-87
2021/11/29 00:30:48;;;;;;;14.88;8.55;;;0.20;99.90;;;;;;6262074;22;20201;-88
2021/11/29 00:33:38;;;;;;;14.48;8.93;;;0.20;99.90;;;;;;6262869;22;20027;-88
2021/11/29 00:36:27;;;;;;;18.20;11.10;;;0.20;99.90;;;;;;6304493;22;20019;-87
2021/11/29 00:39:16;;;;;;;21.38;12.73;;;0.20;99.90;;;;;;6284892;22;20027;-87
2021/11/29 00:42:03;;;;;;;24.40;14.98;;;0.20;99.90;;;;;;6261388;22;20112;-87
2021/11/29 00:44:51;;;;;;;25.27;15.90;;;0.20;99.90;;;;;;6306446;22;20077;-87
2021/11/29 00:47:39;;;;;;;30.65;17.17;;;0.20;99.90;;;;;;6284669;22;20027;-87
2021/11/29 00:50:26;;;;;;;31.60;17.52;;;0.30;99.90;;;;;;6285303;22;20573;-85
2021/11/29 00:53:16;;;;;;;35.60;20.02;;;0.20;99.90;;;;;;6307934;22;20110;-88
2021/11/29 00:56:04;;;;;;;40.28;22.17;;;0.30;99.90;;;;;;6283083;22;20027;-86
2021/11/29 00:58:54;;;;;;;40.33;22.48;;;0.30;99.90;;;;;;6283859;22;20306;-87
2021/11/29 01:01:42;;;;;;;41.47;22.55;;;0.30;99.90;;;;;;6280589;22;20038;-86
2021/11/29 01:04:30;;;;;;;46.47;24.02;;;0.30;99.90;;;;;;6284785;22;20030;-87
2021/11/29 01:07:18;;;;;;;46.15;24.52;;;0.30;99.90;;;;;;6284721;22;20023;-86
2021/11/29 01:10:07;;;;;;;45.58;24.63;;;0.30;99.90;;;;;;6284977;22;20112;-85
2021/11/29 01:12:55;;;;;;;47.17;24.95;;;0.30;99.90;;;;;;6305378;22;20095;-86
2021/11/29 01:15:45;;;;;;;46.15;24.52;;;0.30;99.90;;;;;;6305599;22;20019;-88
2021/11/29 01:18:32;;;;;;;49.50;26.60;;;0.30;99.90;;;;;;6287049;22;20096;-86
2021/11/29 01:21:20;;;;;;;50.50;25.98;;;0.30;99.90;;;;;;6306774;22;20027;-84
2021/11/29 01:24:10;;;;;;;50.13;26.60;;;0.30;99.90;;;;;;6261887;22;20116;-86
2021/11/29 01:26:59;;;;;;;55.63;27.60;;;0.20;99.90;;;;;;6262704;22;20088;-85
2021/11/29 01:29:47;;;;;;;52.45;27.10;;;0.20;99.90;;;;;;6307272;22;20359;-85
2021/11/29 01:32:34;;;;;;;54.90;27.48;;;0.20;99.90;;;;;;6262903;22;20312;-86
2021/11/29 01:35:21;;;;;;;54.55;28.10;;;0.10;99.90;;;;;;6262140;22;20023;-83
2021/11/29 01:38:09;;;;;;;58.78;27.55;;;0.10;99.90;;;;;;6282688;22;20027;-84
2021/11/29 01:40:56;;;;;;;58.30;28.65;;;0.20;99.90;;;;;;6306195;22;20054;-86
2021/11/29 01:43:45;;;;;;;63.08;30.25;;;0.20;99.90;;;;;;6263204;22;20067;-86
2021/11/29 01:46:32;;;;;;;59.58;29.58;;;0.20;99.90;;;;;;6306820;22;20118;-86
2021/11/29 01:49:19;;;;;;;58.10;28.50;;;0.20;99.90;;;;;;6283958;22;20047;-87
2021/11/29 01:52:07;;;;;;;64.88;30.52;;;0.20;99.90;;;;;;6284147;22;20114;-87
2021/11/29 01:54:54;;;;;;;63.00;31.00;;;0.20;99.90;;;;;;6283972;22;20019;-86
2021/11/29 01:57:41;;;;;;;67.57;31.92;;;0.20;99.90;;;;;;6261086;22;20019;-87
2021/11/29 02:00:34;;;;;;;66.82;31.52;;;0.30;99.90;;;;;;6261385;22;20023;-85
2021/11/29 02:03:25;;;;;;;69.45;31.48;;;0.20;99.90;;;;;;6283307;22;20471;-86
2021/11/29 02:06:12;;;;;;;68.00;32.70;;;0.20;99.90;;;;;;6284052;22;20122;-85
2021/11/29 02:09:01;;;;;;;69.55;32.70;;;0.20;99.90;;;;;;6284516;22;20307;-85
2021/11/29 02:11:51;;;;;;;62.88;32.00;;;0.20;99.90;;;;;;6309174;22;20031;-86
2021/11/29 02:14:46;;;;;;;68.43;31.95;;;0.30;99.90;;;;;;6288860;22;20023;-85
2021/11/29 02:17:33;;;;;;;71.53;34.38;;;0.30;99.90;;;;;;6289286;22;20038;-86
2021/11/29 02:20:25;;;;;;;62.30;32.95;;;0.30;99.90;;;;;;6310508;22;20372;-87
2021/11/29 02:23:14;;;;;;;67.10;33.20;;;0.20;99.90;;;;;;6276994;22;20027;-84
2021/11/29 02:26:02;;;;;;;62.97;32.67;;;0.20;99.90;;;;;;6280511;22;20190;-86
2021/11/29 02:28:57;;;;;;;69.30;33.95;;;0.20;99.90;;;;;;6308827;22;20022;-86
2021/11/29 02:31:48;;;;;;;66.63;34.67;;;0.20;99.90;;;;;;6332354;22;20011;-85
2021/11/29 02:34:36;;;;;;;65.30;35.35;;;0.20;99.90;;;;;;6300807;22;20050;-85
2021/11/29 02:37:24;;;;;;;65.68;34.95;;;0.20;99.90;;;;;;6308825;22;20348;-86
2021/11/29 02:40:11;;;;;;;76.50;36.58;;;0.20;99.90;;;;;;6264182;22;20027;-84
2021/11/29 02:42:59;;;;;;;72.63;36.78;;;0.10;99.90;;;;;;6308218;22;20027;-85
2021/11/29 02:45:49;;;;;;;70.03;36.38;;;0.20;99.90;;;;;;6285098;22;20054;-86
2021/11/29 02:48:44;;;;;;;65.60;34.85;;;0.20;99.90;;;;;;6284129;22;20027;-84
2021/11/29 02:51:49;;;;;;;65.28;34.67;;;0.20;99.90;;;;;;6301494;22;20023;-85
2021/11/29 02:54:40;;;;;;;62.65;33.65;;;0.20;99.90;;;;;;6297702;22;20027;-86
2021/11/29 02:57:28;;;;;;;62.78;32.60;;;0.10;99.90;;;;;;6289615;22;20031;-86
2021/11/29 03:00:20;;;;;;;70.88;34.88;;;0.10;99.90;;;;;;6311154;22;20089;-86
2021/11/29 03:03:10;;;;;;;57.08;32.17;;;0.10;99.90;;;;;;6268259;22;20359;-85
2021/11/29 03:05:58;;;;;;;59.75;32.22;;;0.10;99.90;;;;;;6312598;22;20049;-87
2021/11/29 03:08:48;;;;;;;66.30;35.25;;;0.00;99.90;;;;;;6309458;22;20054;-86
2021/11/29 03:11:36;;;;;;;64.60;35.22;;;0.10;99.90;;;;;;6284941;22;20039;-86
2021/11/29 03:14:24;;;;;;;60.13;33.35;;;0.10;99.90;;;;;;6282705;22;20077;-85
2021/11/29 03:17:11;;;;;;;56.80;29.40;;;0.10;99.90;;;;;;6284686;22;20128;-86
2021/11/29 03:19:59;;;;;;;53.88;29.45;;;0.10;99.90;;;;;;6282356;22;20027;-86
2021/11/29 03:22:46;;;;;;;49.83;27.30;;;0.10;99.90;;;;;;6283422;22;20027;-85
2021/11/29 03:25:38;;;;;;;49.60;26.67;;;0.10;99.90;;;;;;6303380;22;20081;-85
2021/11/29 03:28:25;;;;;;;56.00;28.10;;;0.10;99.90;;;;;;6283180;22;20050;-86
2021/11/29 03:31:14;;;;;;;47.70;26.52;;;0.00;99.90;;;;;;6305091;22;20123;-85
2021/11/29 03:34:04;;;;;;;49.85;27.80;;;-0.10;99.90;;;;;;6281626;22;20025;-86
2021/11/29 03:36:51;;;;;;;49.92;27.23;;;-0.10;99.90;;;;;;6284158;22;20020;-84
2021/11/29 03:39:38;;;;;;;55.78;29.55;;;-0.10;99.90;;;;;;6284764;22;20093;-86
2021/11/29 03:42:25;;;;;;;52.63;26.65;;;-0.10;99.90;;;;;;6283485;22;20027;-87
2021/11/29 03:45:15;;;;;;;50.40;27.42;;;-0.10;99.90;;;;;;6284894;22;20019;-87
2021/11/29 03:48:05;;;;;;;51.28;27.40;;;0.00;99.90;;;;;;6263335;22;20034;-88
2021/11/29 03:50:53;;;;;;;51.95;27.90;;;0.00;99.90;;;;;;6283917;22;20046;-86
2021/11/29 03:53:40;;;;;;;54.30;27.95;;;0.00;99.90;;;;;;6306524;22;20023;-87
2021/11/29 03:56:27;;;;;;;46.20;27.05;;;-0.10;99.90;;;;;;6263187;22;20436;-88
2021/11/29 03:59:18;;;;;;;51.22;27.73;;;-0.10;99.90;;;;;;6264020;22;20410;-86
2021/11/29 04:02:08;;;;;;;52.17;25.85;;;-0.10;99.90;;;;;;6282834;22;20027;-85
2021/11/29 04:04:56;;;;;;;53.83;28.13;;;0.00;99.90;;;;;;6264075;22;20073;-86
2021/11/29 04:07:43;;;;;;;57.05;28.05;;;0.00;99.90;;;;;;6263273;22;20422;-87
2021/11/29 04:10:31;;;;;;;53.60;27.98;;;0.00;99.90;;;;;;6306680;22;20488;-86
2021/11/29 04:13:18;;;;;;;61.17;29.13;;;0.00;99.90;;;;;;6308002;22;20073;-87
2021/11/29 04:16:05;;;;;;;54.72;28.75;;;-0.10;99.90;;;;;;6284143;22;20031;-86
2021/11/29 04:18:54;;;;;;;51.78;28.40;;;-0.10;99.90;;;;;;6306862;22;20606;-85
2021/11/29 04:21:41;;;;;;;57.03;29.35;;;-0.10;99.90;;;;;;6310501;22;20027;-86
2021/11/29 04:24:29;;;;;;;59.40;29.67;;;-0.20;99.90;;;;;;6283494;22;20031;-87
2021/11/29 04:27:17;;;;;;;57.97;31.75;;;-0.20;99.90;;;;;;6285691;22;20019;-87
2021/11/29 04:30:10;;;;;;;62.55;30.90;;;-0.10;99.90;;;;;;6306636;22;20564;-87
2021/11/29 04:32:57;;;;;;;53.45;29.95;;;-0.10;99.90;;;;;;6265390;22;20023;-85
2021/11/29 04:35:46;;;;;;;61.58;30.95;;;0.00;99.90;;;;;;6282476;22;20023;-87
2021/11/29 04:38:33;;;;;;;69.43;33.28;;;0.00;99.90;;;;;;6282404;22;20050;-86
2021/11/29 04:41:23;;;;;;;61.08;32.17;;;0.00;99.90;;;;;;6283161;22;20015;-86
2021/11/29 04:44:11;;;;;;;65.22;32.53;;;0.00;99.90;;;;;;6284309;22;20434;-86
2021/11/29 04:46:58;;;;;;;70.85;32.50;;;0.10;99.90;;;;;;6305170;22;20053;-87
2021/11/29 04:49:46;;;;;;;63.95;33.20;;;0.10;99.90;;;;;;6241422;22;20148;-88
2021/11/29 04:52:38;;;;;;;67.95;32.90;;;0.10;99.90;;;;;;6263335;22;20023;-87
2021/11/29 04:55:27;;;;;;;64.95;32.08;;;0.10;99.90;;;;;;6262654;22;20027;-88
2021/11/29 04:58:14;;;;;;;65.40;32.65;;;0.20;99.90;;;;;;6306664;22;20700;-87
2021/11/29 05:01:21;;;;;;;64.00;33.47;;;0.20;99.90;;;;;;6281947;22;20080;-87
2021/11/29 05:04:48;;;;;;;65.28;31.42;;;0.20;99.90;;;;;;6286945;22;20019;-87
2021/11/29 05:07:38;;;;;;;51.38;25.08;;;0.20;99.90;;;;;;6284930;22;20027;-86
2021/11/29 05:10:32;;;;;;;68.43;32.20;;;0.20;99.90;;;;;;6308151;22;20337;-86
2021/11/29 05:13:19;;;;;;;61.97;30.52;;;0.20;99.90;;;;;;6283512;22;20057;-85
2021/11/29 05:16:06;;;;;;;63.58;30.85;;;0.20;99.90;;;;;;6282585;22;20027;-85
2021/11/29 05:18:56;;;;;;;63.47;31.73;;;0.20;99.90;;;;;;6281023;22;20027;-85
2021/11/29 05:21:43;;;;;;;65.60;32.53;;;0.20;99.90;;;;;;6281474;22;20096;-88
2021/11/29 05:24:30;;;;;;;65.07;31.67;;;0.20;99.90;;;;;;6281678;22;20417;-87
2021/11/29 05:27:20;;;;;;;64.03;30.23;;;0.20;99.90;;;;;;6280812;22;20031;-87
2021/11/29 05:30:08;;;;;;;57.55;28.90;;;0.20;99.90;;;;;;6283729;22;20089;-84
2021/11/29 05:32:56;;;;;;;51.95;27.02;;;0.20;99.90;;;;;;6307861;22;20427;-86
2021/11/29 05:35:43;;;;;;;50.65;26.20;;;0.20;99.90;;;;;;6285263;22;20030;-86
2021/11/29 05:38:31;;;;;;;51.67;26.23;;;0.20;99.90;;;;;;6285918;22;20315;-87
2021/11/29 05:41:58;;;;;;;46.33;25.95;;;0.30;99.90;;;;;;6267675;22;20085;-82
2021/11/29 05:45:45;;;;;;;;;;;;;;;;;;;;;
2021/11/29 05:49:43;;;;;;;45.67;24.27;;;0.30;99.90;;;;;;6288373;22;20034;-82
2021/11/29 05:52:40;;;;;;;53.75;25.83;;;0.20;99.90;;;;;;6159385;23;20025;-81
2021/11/29 05:55:36;;;;;;;52.20;26.45;;;0.20;99.90;;;;;;6241127;22;20019;-80
2021/11/29 05:58:30;;;;;;;52.92;26.98;;;0.20;99.90;;;;;;6263689;22;20104;-81
2021/11/29 06:01:22;;;;;;;44.08;20.70;;;0.20;99.90;;;;;;6263183;22;20034;-81
2021/11/29 06:04:16;;;;;;;53.38;25.90;;;0.10;99.90;;;;;;6284355;22;20109;-81
2021/11/29 06:07:06;;;;;;;56.65;27.50;;;0.10;99.90;;;;;;6281676;22;20046;-81
2021/11/29 06:09:56;;;;;;;53.35;26.88;;;0.20;99.90;;;;;;6239541;22;20030;-80
2021/11/29 06:12:44;;;;;;;53.55;26.27;;;0.10;99.90;;;;;;6239981;22;20428;-80
2021/11/29 06:15:31;;;;;;;51.50;26.15;;;0.20;99.90;;;;;;6281612;22;20034;-80
2021/11/29 06:18:18;;;;;;;51.08;24.13;;;0.10;99.90;;;;;;6260298;22;20149;-82
2021/11/29 06:21:08;;;;;;;50.25;25.77;;;0.10;99.90;;;;;;6283014;22;20426;-83
2021/11/29 06:23:56;;;;;;;45.08;24.52;;;0.10;99.90;;;;;;6282525;22;20753;-86
2021/11/29 06:26:46;;;;;;;48.47;24.80;;;0.10;99.90;;;;;;6282944;22;20030;-87
2021/11/29 06:29:33;;;;;;;42.42;24.30;;;0.00;99.90;;;;;;6283239;22;20080;-86
2021/11/29 06:32:25;;;;;;;43.13;22.42;;;0.00;99.90;;;;;;6301659;22;20080;-86
2021/11/29 06:35:15;;;;;;;40.97;22.17;;;0.00;99.90;;;;;;6240512;22;20109;-85
2021/11/29 06:38:07;;;;;;;43.05;21.52;;;0.00;99.90;;;;;;6280461;22;20023;-85
2021/11/29 06:40:58;;;;;;;38.38;21.30;;;0.00;99.90;;;;;;6305346;22;20039;-85
2021/11/29 06:43:51;;;;;;;38.10;21.05;;;0.00;99.90;;;;;;6280863;22;20038;-87
2021/11/29 06:46:38;;;;;;;37.95;21.15;;;-0.10;99.90;;;;;;6279831;22;20055;-84
2021/11/29 06:49:28;;;;;;;46.63;21.83;;;-0.10;99.90;;;;;;6275218;22;20331;-85
2021/11/29 06:52:15;;;;;;;39.03;21.45;;;-0.10;99.90;;;;;;6259517;22;20370;-84
2021/11/29 06:55:05;;;;;;;43.08;21.92;;;-0.20;99.90;;;;;;6281637;22;20031;-85
2021/11/29 06:57:52;;;;;;;45.55;22.30;;;-0.30;99.90;;;;;;6303836;22;20030;-89
2021/11/29 07:00:39;;;;;;;42.65;21.58;;;-0.30;99.90;;;;;;6259756;22;20484;-87
2021/11/29 07:03:27;;;;;;;49.10;24.00;;;-0.40;99.90;;;;;;6284916;22;20023;-87
2021/11/29 07:06:17;;;;;;;44.58;22.90;;;-0.40;99.90;;;;;;6262707;22;20038;-88
2021/11/29 07:09:05;;;;;;;43.88;21.60;;;-0.40;99.90;;;;;;6282960;22;20323;-89
2021/11/29 07:11:52;;;;;;;46.33;22.88;;;-0.30;99.90;;;;;;6266191;22;20030;-89
2021/11/29 07:14:39;;;;;;;45.47;21.85;;;-0.20;99.90;;;;;;6259162;22;20078;-89
2021/11/29 07:17:27;;;;;;;44.42;23.25;;;-0.20;99.90;;;;;;6261667;22;20042;-89
2021/11/29 07:20:19;;;;;;;39.28;19.98;;;-0.10;99.90;;;;;;6286812;22;20019;-89
2021/11/29 07:23:12;;;;;;;40.45;20.63;;;-0.10;99.90;;;;;;6262990;22;20027;-88
2021/11/29 07:26:09;;;;;;;37.75;20.73;;;-0.10;99.90;;;;;;6306492;22;20027;-89
2021/11/29 07:28:57;;;;;;;36.40;18.33;;;0.00;99.90;;;;;;6285127;22;20023;-90
2021/11/29 07:31:48;;;;;;;33.45;18.33;;;0.10;99.90;;;;;;6244068;22;20027;-90
2021/11/29 07:34:36;;;;;;;29.75;17.42;;;0.20;99.90;;;;;;6286818;22;20034;-89
2021/11/29 07:37:23;;;;;;;34.95;16.08;;;0.30;99.90;;;;;;6262575;22;20020;-90
2021/11/29 07:40:14;;;;;;;30.27;15.60;;;0.40;99.90;;;;;;6306521;22;20054;-88
2021/11/29 07:43:06;;;;;;;31.50;13.85;;;0.50;99.90;;;;;;6262677;22;20085;-89
2021/11/29 07:45:55;;;;;;;26.13;14.25;;;0.60;99.90;;;;;;6284859;22;20035;-88
2021/11/29 07:48:45;;;;;;;21.02;12.75;;;0.60;99.90;;;;;;6260894;22;20446;-87
2021/11/29 07:51:33;;;;;;;25.77;12.40;;;0.60;99.90;;;;;;6304367;22;20019;-88
2021/11/29 07:54:21;;;;;;;20.48;10.70;;;0.60;99.90;;;;;;6304697;22;20574;-88
2021/11/29 07:57:13;;;;;;;24.88;11.43;;;0.60;99.90;;;;;;6283505;22;20035;-88
2021/11/29 08:00:09;;;;;;;20.60;11.85;;;0.60;99.90;;;;;;6305981;22;20038;-89
2021/11/29 08:02:59;;;;;;;25.10;11.80;;;0.60;99.90;;;;;;6283359;22;20058;-88
2021/11/29 08:05:49;;;;;;;25.08;11.82;;;0.50;99.90;;;;;;6284033;22;20031;-89
2021/11/29 08:08:41;;;;;;;19.92;10.90;;;0.50;99.90;;;;;;6281413;22;20042;-88
2021/11/29 08:11:28;;;;;;;26.00;10.38;;;0.60;99.90;;;;;;6284398;22;20036;-88
2021/11/29 08:14:16;;;;;;;19.73;10.10;;;0.60;99.90;;;;;;6241659;22;20334;-88
2021/11/29 08:17:03;;;;;;;21.80;11.20;;;0.60;99.90;;;;;;6284300;22;20031;-89
2021/11/29 08:19:54;;;;;;;20.73;10.23;;;0.70;99.90;;;;;;6304338;22;20023;-90
2021/11/29 08:22:41;;;;;;;22.30;10.35;;;0.80;99.90;;;;;;6287899;22;20031;-89
2021/11/29 08:25:29;;;;;;;22.60;10.38;;;0.80;99.90;;;;;;6285232;22;20031;-88
2021/11/29 08:28:16;;;;;;;18.77;9.38;;;0.90;99.90;;;;;;6286222;22;20027;-88
2021/11/29 08:31:04;;;;;;;18.60;8.73;;;0.90;99.90;;;;;;6285311;22;20027;-89
2021/11/29 08:34:05;;;;;;;17.88;9.40;;;0.90;99.90;;;;;;6287058;22;20094;-88
2021/11/29 08:36:55;;;;;;;16.90;8.63;;;1.00;99.90;;;;;;6261136;22;20410;-87
2021/11/29 08:39:42;;;;;;;22.60;9.18;;;1.10;99.90;;;;;;6284493;22;20034;-89
2021/11/29 08:42:30;;;;;;;23.70;8.75;;;1.20;99.90;;;;;;6264824;22;20027;-88
2021/11/29 08:45:18;;;;;;;16.60;7.70;;;1.30;99.90;;;;;;6285474;22;20035;-87
2021/11/29 08:48:07;;;;;;;17.90;8.27;;;1.40;99.90;;;;;;6262799;22;20113;-87
2021/11/29 08:51:03;;;;;;;18.85;8.65;;;1.50;99.90;;;;;;6286199;22;20027;-88
2021/11/29 08:53:53;;;;;;;17.58;8.85;;;1.50;99.90;;;;;;6285673;22;20073;-87
2021/11/29 08:56:50;;;;;;;19.17;9.07;;;1.50;99.90;;;;;;6284130;22;20034;-87
2021/11/29 08:59:40;;;;;;;14.65;8.63;;;1.50;99.90;;;;;;6283413;22;20118;-88
2021/11/29 09:02:30;;;;;;;15.43;8.90;;;1.40;99.90;;;;;;6284045;22;20043;-89
2021/11/29 09:05:40;;;;;;;21.83;10.82;;;1.60;99.90;;;;;;6286526;22;20027;-89
2021/11/29 09:08:41;;;;;;;18.05;9.60;;;2.10;99.90;;;;;;6307613;22;20442;-87
2021/11/29 09:11:28;;;;;;;17.30;8.00;;;2.60;99.90;;;;;;6282708;22;20023;-89
2021/11/29 09:14:16;;;;;;;12.13;7.85;;;2.90;99.90;;;;;;6261792;22;20030;-89
2021/11/29 09:17:08;;;;;;;13.65;8.73;;;3.30;99.90;;;;;;6306261;22;20023;-90
2021/11/29 09:19:57;;;;;;;15.40;7.50;;;3.80;99.90;;;;;;6283427;22;20026;-91
2021/11/29 09:22:46;;;;;;;11.35;7.10;;;4.70;99.90;;;;;;6257921;22;20038;-89
2021/11/29 09:25:43;;;;;;;13.73;6.22;;;5.70;99.90;;;;;;6284296;22;20023;-89
2021/11/29 09:28:39;;;;;;;9.57;5.78;;;7.00;99.90;;;;;;6282284;22;20023;-90
2021/11/29 09:31:30;;;;;;;9.10;4.93;;;8.30;99.90;;;;;;6306376;22;20039;-89
2021/11/29 09:34:19;;;;;;;14.70;6.00;;;9.30;95.90;;;;;;6282765;22;20059;-88
2021/11/29 09:37:07;;;;;;;8.02;4.80;;;9.80;90.80;;;;;;6265232;22;20034;-90
2021/11/29 09:39:57;;;;;;;13.73;5.05;;;10.30;90.60;;;;;;6305376;22;20045;-88
2021/11/29 09:42:44;;;;;;;7.78;3.90;;;10.70;85.10;;;;;;6285225;22;20027;-90
2021/11/29 09:45:35;;;;;;;5.90;3.65;;;11.00;80.70;;;;;;6265743;22;20045;-88
2021/11/29 09:48:22;;;;;;;7.70;3.92;;;11.20;77.40;;;;;;6290569;22;20031;-89
2021/11/29 09:51:13;;;;;;;9.27;3.65;;;11.50;76.50;;;;;;6282162;22;20023;-90
2021/11/29 09:54:19;;;;;;;6.40;3.25;;;12.00;72.10;;;;;;6285486;22;20288;-91
2021/11/29 09:57:48;;;;;;;6.70;3.63;;;12.00;70.20;;;;;;6283583;22;20023;-91
2021/11/29 10:00:50;;;;;;;7.70;3.50;;;12.00;66.10;;;;;;6281859;22;20033;-90
2021/11/29 10:03:46;;;;;;;6.27;3.67;;;12.60;67.20;;;;;;6302865;22;20783;-89
2021/11/29 10:06:34;;;;;;;9.23;3.78;;;12.70;66.30;;;;;;6285198;22;20126;-90
2021/11/29 10:09:41;;;;;;;6.22;3.10;;;13.00;64.80;;;;;;6285144;22;20023;-89
2021/11/29 10:13:10;;;;;;;5.40;3.15;;;13.30;64.40;;;;;;6286526;22;20066;-90
2021/11/29 10:15:58;;;;;;;9.75;3.78;;;13.90;60.40;;;;;;6283588;22;20019;-90
2021/11/29 10:18:48;;;;;;;6.68;3.60;;;14.30;59.10;;;;;;6284026;22;20089;-88
2021/11/29 10:21:35;;;;;;;5.15;3.42;;;14.30;59.00;;;;;;6291495;22;20023;-90
2021/11/29 10:24:56;;;;;;;5.50;3.20;;;14.60;59.50;;;;;;6295561;22;20045;-90
2021/11/29 10:27:51;;;;;;;12.90;3.67;;;14.50;56.60;;;;;;6313013;22;20030;-90
2021/11/29 10:31:19;;;;;;;7.78;3.33;;;13.50;58.80;;;;;;6284997;22;20046;-91
2021/11/29 10:34:34;;;;;;;8.35;4.05;;;12.10;61.70;;;;;;6284470;22;20031;-89
2021/11/29 10:37:46;;;;;;;5.55;3.42;;;11.40;64.50;;;;;;6285804;22;20087;-91
2021/11/29 10:40:57;;;;;;;10.50;3.63;;;10.60;66.40;;;;;;6269754;22;20023;-89
2021/11/29 10:44:11;;;;;;;11.77;3.75;;;8.80;72.20;;;;;;6289295;22;20046;-89
2021/11/29 10:47:06;;;;;;;6.68;3.47;;;7.50;78.80;;;;;;6284636;22;20076;-88
2021/11/29 10:49:57;;;;;;;8.38;3.60;;;7.10;82.40;;;;;;6307329;22;20087;-90
2021/11/29 10:52:47;;;;;;;7.65;3.50;;;7.00;85.70;;;;;;6284977;22;20057;-89
2021/11/29 10:56:10;;;;;;;;;;;;;;;;;;;;;
2021/11/29 10:59:21;;;;;;;9.13;3.38;;;8.20;84.50;;;;;;6183582;23;20039;-89
2021/11/29 11:02:22;;;;;;;8.18;3.40;;;8.60;79.30;;;;;;6163643;23;20029;-88
2021/11/29 11:05:12;;;;;;;8.30;3.47;;;8.00;78.20;;;;;;6165015;23;20138;-91
2021/11/29 11:08:08;;;;;;;6.50;3.75;;;6.80;82.20;;;;;;6162901;23;20096;-90
2021/11/29 11:10:56;;;;;;;7.55;3.95;;;5.70;90.50;;;;;;6163997;23;20108;-89
2021/11/29 11:14:16;;;;;;;9.07;4.25;;;5.20;91.60;;;;;;6150457;23;20033;-89
2021/11/29 11:17:05;;;;;;;9.93;3.95;;;4.50;94.60;;;;;;6232730;22;20035;-89
2021/11/29 11:19:56;;;;;;;8.70;4.30;;;4.40;98.90;;;;;;6282951;22;20375;-89
2021/11/29 11:22:49;;;;;;;9.57;4.13;;;4.80;99.90;;;;;;6291062;22;20081;-88
2021/11/29 11:25:42;;;;;;;8.88;4.00;;;5.50;99.70;;;;;;6312247;22;20073;-90
2021/11/29 11:28:36;;;;;;;5.05;3.40;;;5.90;97.40;;;;;;6314312;22;20024;-89
2021/11/29 11:31:28;;;;;;;8.00;3.83;;;6.00;95.40;;;;;;6299524;22;20338;-90
2021/11/29 11:34:19;;;;;;;12.95;3.50;;;5.80;95.30;;;;;;6296825;22;20027;-86
2021/11/29 11:37:07;;;;;;;14.13;3.65;;;5.90;97.20;;;;;;6276993;22;20026;-88
2021/11/29 11:39:55;;;;;;;6.53;3.03;;;6.40;95.10;;;;;;6298437;22;20062;-88
2021/11/29 11:42:47;;;;;;;10.30;3.15;;;6.50;94.20;;;;;;6294370;22;20027;-87
2021/11/29 11:45:37;;;;;;;7.75;3.75;;;6.10;94.70;;;;;;6297576;22;20053;-90
2021/11/29 11:48:25;;;;;;;7.78;3.88;;;5.50;96.20;;;;;;6319283;22;20027;-91
2021/11/29 11:51:15;;;;;;;12.13;3.90;;;5.10;98.20;;;;;;6298848;22;20037;-90
2021/11/29 11:54:02;;;;;;;13.10;3.90;;;4.50;98.50;;;;;;6296779;22;20023;-90
2021/11/29 11:56:52;;;;;;;11.98;4.60;;;4.00;99.90;;;;;;6298840;22;20073;-90
2021/11/29 12:00:08;;;;;;;9.35;4.55;;;3.60;99.90;;;;;;6295184;22;20034;-89
2021/11/29 12:03:20;;;;;;;10.07;4.97;;;3.40;99.90;;;;;;6297302;22;20410;-87
2021/11/29 12:06:17;;;;;;;6.80;4.15;;;3.30;99.90;;;;;;6303168;22;20101;-89
2021/11/29 12:09:10;;;;;;;7.40;3.63;;;4.10;99.90;;;;;;6317441;22;20132;-87
2021/11/29 12:12:05;;;;;;;9.70;3.92;;;6.20;99.90;;;;;;6297233;22;20407;-86
2021/11/29 12:14:55;;;;;;;7.45;3.78;;;7.10;95.10;;;;;;6298450;22;20027;-87
2021/11/29 12:17:46;;;;;;;10.00;4.00;;;6.30;96.30;;;;;;6299651;22;20027;-90
2021/11/29 12:20:37;;;;;;;11.02;4.25;;;5.50;99.60;;;;;;6277356;22;20090;-89
2021/11/29 12:23:41;;;;;;;9.23;3.75;;;5.20;99.90;;;;;;6295598;22;20027;-90
2021/11/29 12:26:44;;;;;;;7.63;3.80;;;4.80;99.90;;;;;;6307101;22;20027;-89
2021/11/29 12:29:34;;;;;;;7.45;3.70;;;4.30;99.90;;;;;;6297670;22;20053;-88
2021/11/29 12:32:25;;;;;;;10.02;4.50;;;3.80;99.90;;;;;;6297860;22;20023;-90
2021/11/29 12:35:13;;;;;;;14.35;5.00;;;3.60;99.90;;;;;;6320875;22;20034;-91
2021/11/29 12:38:07;;;;;;;9.57;5.07;;;3.20;99.90;;;;;;6312074;22;20433;-90
2021/11/29 12:41:05;;;;;;;7.82;4.90;;;3.00;99.90;;;;;;6306603;22;20027;-89
2021/11/29 12:43:59;;;;;;;10.23;4.47;;;3.00;99.90;;;;;;6283277;22;20023;-89
2021/11/29 12:46:47;;;;;;;8.93;4.13;;;3.80;99.90;;;;;;6262850;22;20023;-88
2021/11/29 12:49:38;;;;;;;7.90;4.18;;;4.90;99.90;;;;;;6262520;22;20019;-89
2021/11/29 12:52:39;;;;;;;10.70;4.95;;;4.60;99.90;;;;;;6283624;22;20055;-88
2021/11/29 12:55:29;;;;;;;7.83;4.40;;;4.10;99.90;;;;;;6304993;22;20109;-88
2021/11/29 12:58:23;;;;;;;10.57;4.68;;;3.70;99.90;;;;;;6306351;22;20126;-90
2021/11/29 13:01:14;;;;;;;10.73;5.72;;;3.30;99.90;;;;;;6306676;22;20027;-88
2021/11/29 13:04:02;;;;;;;10.20;5.47;;;3.10;99.90;;;;;;6304493;22;20023;-88
2021/11/29 13:06:58;;;;;;;8.07;5.40;;;3.00;99.90;;;;;;6283536;22;20426;-88
2021/11/29 13:09:50;;;;;;;10.43;5.30;;;3.00;99.90;;;;;;6284020;22;20023;-90
2021/11/29 13:12:39;;;;;;;11.15;5.13;;;3.00;99.90;;;;;;6283466;22;20023;-89
2021/11/29 13:15:27;;;;;;;15.35;5.65;;;3.00;99.90;;;;;;6282724;22;20054;-88
2021/11/29 13:18:53;;;;;;;8.88;5.32;;;2.80;99.90;;;;;;6282943;22;20031;-90
2021/11/29 13:21:52;;;;;;;12.73;6.18;;;2.50;99.90;;;;;;6305074;22;20092;-89
2021/11/29 13:24:46;;;;;;;16.92;6.55;;;2.40;99.90;;;;;;6305593;22;20030;-88
2021/11/29 13:27:38;;;;;;;12.25;6.35;;;2.20;99.90;;;;;;6283781;22;20023;-88
2021/11/29 13:30:30;;;;;;;10.93;6.45;;;2.10;99.90;;;;;;6283197;22;20027;-90
2021/11/29 13:33:20;;;;;;;13.80;7.07;;;2.00;99.90;;;;;;6304170;22;20042;-88
2021/11/29 13:36:12;;;;;;;12.52;7.28;;;1.90;99.90;;;;;;6282311;22;20042;-88
2021/11/29 13:39:13;;;;;;;12.60;7.45;;;1.80;99.90;;;;;;6284848;22;20338;-87
2021/11/29 13:42:15;;;;;;;12.27;7.68;;;1.70;99.90;;;;;;6282173;22;20445;-89
2021/11/29 13:45:25;;;;;;;11.88;6.88;;;1.70;99.90;;;;;;6286242;22;20095;-87
2021/11/29 13:48:14;;;;;;;13.85;7.78;;;1.80;99.90;;;;;;6282131;22;20030;-88
2021/11/29 13:51:01;;;;;;;15.05;8.10;;;1.80;99.90;;;;;;6283175;22;20031;-89
2021/11/29 13:53:48;;;;;;;11.30;7.43;;;1.80;99.90;;;;;;6283484;22;20024;-89
2021/11/29 13:56:37;;;;;;;10.68;7.63;;;1.80;99.90;;;;;;6262123;22;20038;-91
2021/11/29 13:59:24;;;;;;;17.52;7.70;;;1.70;99.90;;;;;;6282733;22;20027;-88
2021/11/29 14:02:14;;;;;;;11.77;7.35;;;1.70;99.90;;;;;;6260357;22;20334;-89
2021/11/29 14:05:01;;;;;;;12.50;7.88;;;1.60;99.90;;;;;;6303942;22;20023;-90
2021/11/29 14:07:57;;;;;;;15.60;7.95;;;1.60;99.90;;;;;;6282428;22;20023;-89
2021/11/29 14:10:49;;;;;;;16.85;8.80;;;1.60;99.90;;;;;;6305952;22;20057;-90
2021/11/29 14:13:45;;;;;;;13.68;9.07;;;1.40;99.90;;;;;;6304761;22;20035;-90
2021/11/29 14:16:42;;;;;;;16.48;9.10;;;1.40;99.90;;;;;;6283104;22;20023;-89
2021/11/29 14:19:29;;;;;;;16.67;9.30;;;1.30;99.90;;;;;;6284337;22;20027;-88
2021/11/29 14:22:17;;;;;;;11.65;8.40;;;1.30;99.90;;;;;;6281754;22;20027;-90
2021/11/29 14:25:05;;;;;;;16.02;8.70;;;1.30;99.90;;;;;;6282922;22;20030;-88
2021/11/29 14:27:57;;;;;;;13.77;9.00;;;1.30;99.90;;;;;;6281133;22;20019;-90
2021/11/29 14:30:45;;;;;;;13.65;9.43;;;1.30;99.90;;;;;;6283439;22;20556;-88
2021/11/29 14:33:37;;;;;;;15.38;8.73;;;1.30;99.90;;;;;;6280864;22;20023;-89
2021/11/29 14:36:41;;;;;;;14.07;8.65;;;1.40;99.90;;;;;;6305130;22;20049;-89
2021/11/29 14:39:45;;;;;;;14.80;8.90;;;1.20;99.90;;;;;;6304195;22;20077;-89
2021/11/29 14:42:49;;;;;;;13.23;8.20;;;1.10;99.90;;;;;;6283057;22;20023;-88
2021/11/29 14:45:39;;;;;;;14.88;8.57;;;1.00;99.90;;;;;;6281692;22;20027;-88
2021/11/29 14:48:31;;;;;;;15.35;8.57;;;0.90;99.90;;;;;;6243077;22;20023;-88
2021/11/29 14:51:34;;;;;;;12.48;7.50;;;0.80;99.90;;;;;;6288293;22;20437;-90
2021/11/29 14:54:29;;;;;;;12.50;8.63;;;0.70;99.90;;;;;;6306017;22;20023;-90